Excalibur — FAD3440 — position and weather

sailwx.info

Track history (hours):
 
Tides and Currents Weather Stations Pressure Air Temp Water Temp Dewpoint Dewpoint Depression Visibility Wind Speed Wind Dir Waves Ship Positions

Excalibur

Last reported at 2017-Nov-04 14:32 UTC. Time now 2017-Nov-24 13:05 UTC.
Position N 47°43' W 003°38'.
Warning: this ship's position is 19 days out of date.

Length 11 m.

Type: Sailing vessel. MMSI: 227383920.

Date/timePositionNaut miles runAvg speedWind from/ knotsBaromVisibWave heightAir tempDewpointWater temp
2017-Nov-04 14:32N 47°43' W 003°38'1 4.6
2017-Nov-04 14:25N 47°43' W 003°37'2 4.9
2017-Nov-04 14:01N 47°43' W 003°34'3 5.1
2017-Nov-04 13:31N 47°43' W 003°30'2 3.7
2017-Nov-04 13:00N 47°41' W 003°30'1 2.4
2017-Nov-04 12:31N 47°40' W 003°28'2 3.5
2017-Nov-04 12:01N 47°40' W 003°26'2 3.2
2017-Nov-04 11:30N 47°41' W 003°24'2 3.5
2017-Nov-04 11:00N 47°42' W 003°22'1 1.9
2017-Nov-04 10:29N 47°43' W 003°22'0 0.0
2017-Nov-04 09:59N 47°43' W 003°22'0 0.0
2017-Nov-04 09:29N 47°43' W 003°22'0 0.0
2017-Nov-03 17:36N 47°43' W 003°22'0 0.1
2017-Nov-03 17:30N 47°43' W 003°22'0 0.0
2017-Nov-03 17:00N 47°43' W 003°22'0 0.0
2017-Nov-03 16:30N 47°43' W 003°22'0 0.0
2017-Nov-03 16:00N 47°43' W 003°22'0 0.0
2017-Nov-03 15:30N 47°43' W 003°22'0 0.0
2017-Nov-03 15:00N 47°43' W 003°22'0 0.0
2017-Nov-03 14:30N 47°43' W 003°22'0 0.0
2017-Nov-03 14:00N 47°43' W 003°22'0 0.6
2017-Nov-03 13:30N 47°43' W 003°22'3 5.3
2017-Nov-03 13:00N 47°40' W 003°22'2 3.8
2017-Nov-03 12:30N 47°40' W 003°19'2 4.7
2017-Nov-03 12:00N 47°38' W 003°17'3 5.6
2017-Nov-03 11:30N 47°36' W 003°16'3 6.6
2017-Nov-03 11:00N 47°33' W 003°14'4 7.1
2017-Nov-03 10:30N 47°29' W 003°13'4 7.2
2017-Nov-03 10:00N 47°26' W 003°11'5 0.3
2017-Nov-02 15:40N 47°21' W 003°09'0 2.0
2017-Nov-02 15:30N 47°21' W 003°09'2 3.9
2017-Nov-02 15:00N 47°23' W 003°10'1 2.9
2017-Nov-02 14:30N 47°23' W 003°12'3 5.3
2017-Nov-02 14:00N 47°25' W 003°14'3 5.3
2017-Nov-02 13:30N 47°28' W 003°16'3 5.3
2017-Nov-02 13:00N 47°30' W 003°17'2 4.8
2017-Nov-02 12:30N 47°32' W 003°19'2 4.9
2017-Nov-02 12:00N 47°35' W 003°20'2 4.4
2017-Nov-02 11:29N 47°36' W 003°22'2 5.0
2017-Nov-02 11:00N 47°38' W 003°24'1 2.9
2017-Nov-02 10:30N 47°39' W 003°26'1 1.0
2017-Nov-02 09:59N 47°39' W 003°27'0 0.0
2017-Nov-01 18:42N 47°39' W 003°27'0 0.0
2017-Nov-01 18:30N 47°39' W 003°27'  
Track history (hours):
 
Tides and Currents Weather Stations Pressure Air Temp Water Temp Dewpoint Dewpoint Depression Visibility Wind Speed Wind Dir Waves Ship Positions

Excalibur

Last reported at 2017-Nov-04 14:32 UTC. Time now 2017-Nov-24 13:05 UTC.
Position N 47°43' W 003°38'.
Warning: this ship's position is 19 days out of date.

Length 11 m.

Type: Sailing vessel. MMSI: 227383920.

Date/timePositionNaut miles runAvg speedWind from/ knotsBaromVisibWave heightAir tempDewpointWater temp
2017-Nov-04 14:32N 47°43' W 003°38'1 4.6
2017-Nov-04 14:25N 47°43' W 003°37'2 4.9
2017-Nov-04 14:01N 47°43' W 003°34'3 5.1
2017-Nov-04 13:31N 47°43' W 003°30'2 3.7
2017-Nov-04 13:00N 47°41' W 003°30'1 2.4
2017-Nov-04 12:31N 47°40' W 003°28'2 3.5
2017-Nov-04 12:01N 47°40' W 003°26'2 3.2
2017-Nov-04 11:30N 47°41' W 003°24'2 3.5
2017-Nov-04 11:00N 47°42' W 003°22'1 1.9
2017-Nov-04 10:29N 47°43' W 003°22'0 0.0
2017-Nov-04 09:59N 47°43' W 003°22'0 0.0
2017-Nov-04 09:29N 47°43' W 003°22'0 0.0
2017-Nov-03 17:36N 47°43' W 003°22'0 0.1
2017-Nov-03 17:30N 47°43' W 003°22'0 0.0
2017-Nov-03 17:00N 47°43' W 003°22'0 0.0
2017-Nov-03 16:30N 47°43' W 003°22'0 0.0
2017-Nov-03 16:00N 47°43' W 003°22'0 0.0
2017-Nov-03 15:30N 47°43' W 003°22'0 0.0
2017-Nov-03 15:00N 47°43' W 003°22'0 0.0
2017-Nov-03 14:30N 47°43' W 003°22'0 0.0
2017-Nov-03 14:00N 47°43' W 003°22'0 0.6
2017-Nov-03 13:30N 47°43' W 003°22'3 5.3
2017-Nov-03 13:00N 47°40' W 003°22'2 3.8
2017-Nov-03 12:30N 47°40' W 003°19'2 4.7
2017-Nov-03 12:00N 47°38' W 003°17'3 5.6
2017-Nov-03 11:30N 47°36' W 003°16'3 6.6
2017-Nov-03 11:00N 47°33' W 003°14'4 7.1
2017-Nov-03 10:30N 47°29' W 003°13'4 7.2
2017-Nov-03 10:00N 47°26' W 003°11'5 0.3
2017-Nov-02 15:40N 47°21' W 003°09'0 2.0
2017-Nov-02 15:30N 47°21' W 003°09'2 3.9
2017-Nov-02 15:00N 47°23' W 003°10'1 2.9
2017-Nov-02 14:30N 47°23' W 003°12'3 5.3
2017-Nov-02 14:00N 47°25' W 003°14'3 5.3
2017-Nov-02 13:30N 47°28' W 003°16'3 5.3
2017-Nov-02 13:00N 47°30' W 003°17'2 4.8
2017-Nov-02 12:30N 47°32' W 003°19'2 4.9
2017-Nov-02 12:00N 47°35' W 003°20'2 4.4
2017-Nov-02 11:29N 47°36' W 003°22'2 5.0
2017-Nov-02 11:00N 47°38' W 003°24'1 2.9
2017-Nov-02 10:30N 47°39' W 003°26'1 1.0
2017-Nov-02 09:59N 47°39' W 003°27'0 0.0
2017-Nov-01 18:42N 47°39' W 003°27'0 0.0
2017-Nov-01 18:30N 47°39' W 003°27'  

Dump ship's entire track history